Terminal Aerodrome Forecast
Issued by NWS

Home | Current Version | Previous Version | Text Only | Print | Product List | Glossary Off
Versions: 1 2 3 4 5 6 7 8 9 10 11 12 13 14 15 16 17 18 19 20 21 22 23 24 25 26 27 28 29 30 31 32 33 34 35 36 37 38 39 40 41 42 43 44 45 46 47 48 49 50

000
FTUS43 KLOT 250059 AAA
TAFGYY
TAF AMD
KGYY 250059Z 2501/2524 10008KT P6SM VCSH BKN015 OVC035
      TEMPO 2501/2503 5SM -RASNPL
     FM250400 11011KT P6SM SCT025 OVC070
     FM250700 12012G17KT 5SM -RA VCTS SCT007 OVC015CB
      TEMPO 2508/2510 1 1/2SM -RAPL BR OVC007
     FM251100 15012G18KT 6SM -SHRA BR OVC006
     FM251800 21012G18KT P6SM OVC015
     FM252200 25012KT 6SM -SHRA OVC010=

USA.gov is the U.S. government's official web portal to all federal, state and local government web resources and services.